sensor_id;sensor_type;location;lat;lon;timestamp;P1;durP1;ratioP1;P2;durP2;ratioP2
48849;SDS011;63210;53.370;6.770;2023-08-06T00:01:10;20.07;;;17.47;;
48849;SDS011;63210;53.370;6.770;2023-08-06T00:03:35;15.30;;;11.15;;
48849;SDS011;63210;53.370;6.770;2023-08-06T00:06:01;9.35;;;8.40;;
48849;SDS011;63210;53.370;6.770;2023-08-06T00:08:26;12.43;;;10.70;;
48849;SDS011;63210;53.370;6.770;2023-08-06T00:10:51;11.88;;;8.98;;
48849;SDS011;63210;53.370;6.770;2023-08-06T00:13:17;15.23;;;9.93;;
48849;SDS011;63210;53.370;6.770;2023-08-06T00:15:42;13.20;;;9.00;;
48849;SDS011;63210;53.370;6.770;2023-08-06T00:18:07;11.10;;;8.50;;
48849;SDS011;63210;53.370;6.770;2023-08-06T00:20:32;10.75;;;9.07;;
48849;SDS011;63210;53.370;6.770;2023-08-06T00:22:58;11.07;;;8.10;;
48849;SDS011;63210;53.370;6.770;2023-08-06T00:25:27;10.65;;;8.90;;
48849;SDS011;63210;53.370;6.770;2023-08-06T00:27:52;11.50;;;9.77;;
48849;SDS011;63210;53.370;6.770;2023-08-06T00:30:17;10.38;;;8.00;;
48849;SDS011;63210;53.370;6.770;2023-08-06T00:32:42;7.72;;;7.00;;
48849;SDS011;63210;53.370;6.770;2023-08-06T00:35:08;8.30;;;6.95;;
48849;SDS011;63210;53.370;6.770;2023-08-06T00:37:33;9.70;;;7.13;;
48849;SDS011;63210;53.370;6.770;2023-08-06T00:39:58;9.50;;;7.20;;
48849;SDS011;63210;53.370;6.770;2023-08-06T00:42:24;9.23;;;7.43;;
48849;SDS011;63210;53.370;6.770;2023-08-06T00:44:49;8.30;;;7.28;;
48849;SDS011;63210;53.370;6.770;2023-08-06T00:47:14;9.15;;;7.05;;
48849;SDS011;63210;53.370;6.770;2023-08-06T00:49:40;10.73;;;7.88;;
48849;SDS011;63210;53.370;6.770;2023-08-06T00:52:05;8.98;;;8.07;;
48849;SDS011;63210;53.370;6.770;2023-08-06T00:54:32;13.57;;;8.90;;
48849;SDS011;63210;53.370;6.770;2023-08-06T00:56:57;14.57;;;9.85;;
48849;SDS011;63210;53.370;6.770;2023-08-06T00:59:24;15.90;;;8.80;;
48849;SDS011;63210;53.370;6.770;2023-08-06T01:01:49;9.20;;;8.02;;
48849;SDS011;63210;53.370;6.770;2023-08-06T01:04:15;12.52;;;8.15;;
48849;SDS011;63210;53.370;6.770;2023-08-06T01:06:47;10.52;;;7.38;;
48849;SDS011;63210;53.370;6.770;2023-08-06T01:11:52;12.80;;;8.80;;
48849;SDS011;63210;53.370;6.770;2023-08-06T01:16:50;9.18;;;7.80;;
48849;SDS011;63210;53.370;6.770;2023-08-06T01:19:17;12.70;;;7.85;;
48849;SDS011;63210;53.370;6.770;2023-08-06T01:21:42;10.50;;;7.65;;
48849;SDS011;63210;53.370;6.770;2023-08-06T01:24:07;9.05;;;6.85;;
48849;SDS011;63210;53.370;6.770;2023-08-06T01:26:33;8.63;;;6.97;;
48849;SDS011;63210;53.370;6.770;2023-08-06T01:31:29;9.50;;;7.80;;
48849;SDS011;63210;53.370;6.770;2023-08-06T01:33:55;8.75;;;7.32;;
48849;SDS011;63210;53.370;6.770;2023-08-06T01:36:21;9.48;;;6.90;;
48849;SDS011;63210;53.370;6.770;2023-08-06T01:38:47;11.73;;;7.57;;
48849;SDS011;63210;53.370;6.770;2023-08-06T01:41:12;9.80;;;8.15;;
48849;SDS011;63210;53.370;6.770;2023-08-06T01:43:37;10.38;;;7.53;;
48849;SDS011;63210;53.370;6.770;2023-08-06T01:46:03;8.55;;;7.43;;
48849;SDS011;63210;53.370;6.770;2023-08-06T01:48:28;8.55;;;7.38;;
48849;SDS011;63210;53.370;6.770;2023-08-06T01:50:54;9.95;;;8.13;;
48849;SDS011;63210;53.370;6.770;2023-08-06T01:53:19;14.10;;;8.80;;
48849;SDS011;63210;53.370;6.770;2023-08-06T01:55:48;9.57;;;8.57;;
48849;SDS011;63210;53.370;6.770;2023-08-06T01:58:13;21.90;;;14.50;;
48849;SDS011;63210;53.370;6.770;2023-08-06T02:00:38;19.75;;;12.40;;
48849;SDS011;63210;53.370;6.770;2023-08-06T02:03:04;10.50;;;9.07;;
48849;SDS011;63210;53.370;6.770;2023-08-06T02:05:29;10.57;;;7.27;;
48849;SDS011;63210;53.370;6.770;2023-08-06T02:07:54;13.30;;;8.77;;
48849;SDS011;63210;53.370;6.770;2023-08-06T02:10:22;10.70;;;7.88;;
48849;SDS011;63210;53.370;6.770;2023-08-06T02:12:48;10.77;;;7.57;;
48849;SDS011;63210;53.370;6.770;2023-08-06T02:15:13;13.67;;;8.57;;
48849;SDS011;63210;53.370;6.770;2023-08-06T02:17:38;13.65;;;11.25;;
48849;SDS011;63210;53.370;6.770;2023-08-06T02:20:04;14.50;;;12.13;;
48849;SDS011;63210;53.370;6.770;2023-08-06T02:22:29;22.13;;;17.25;;
48849;SDS011;63210;53.370;6.770;2023-08-06T02:24:54;18.10;;;15.88;;
48849;SDS011;63210;53.370;6.770;2023-08-06T02:27:20;14.20;;;11.52;;
48849;SDS011;63210;53.370;6.770;2023-08-06T02:29:45;16.23;;;12.35;;
48849;SDS011;63210;53.370;6.770;2023-08-06T02:32:10;12.25;;;9.85;;
48849;SDS011;63210;53.370;6.770;2023-08-06T02:34:35;15.37;;;9.97;;
48849;SDS011;63210;53.370;6.770;2023-08-06T02:37:01;11.77;;;9.80;;
48849;SDS011;63210;53.370;6.770;2023-08-06T02:39:26;11.13;;;9.48;;
48849;SDS011;63210;53.370;6.770;2023-08-06T02:41:51;15.32;;;13.65;;
48849;SDS011;63210;53.370;6.770;2023-08-06T02:44:16;12.13;;;10.83;;
48849;SDS011;63210;53.370;6.770;2023-08-06T02:46:43;14.47;;;11.67;;
48849;SDS011;63210;53.370;6.770;2023-08-06T02:49:09;11.63;;;10.43;;
48849;SDS011;63210;53.370;6.770;2023-08-06T02:51:34;13.53;;;10.47;;
48849;SDS011;63210;53.370;6.770;2023-08-06T02:53:59;19.07;;;12.27;;
48849;SDS011;63210;53.370;6.770;2023-08-06T02:56:24;12.48;;;10.43;;
48849;SDS011;63210;53.370;6.770;2023-08-06T02:58:51;13.90;;;9.95;;
48849;SDS011;63210;53.370;6.770;2023-08-06T03:01:16;10.68;;;9.55;;
48849;SDS011;63210;53.370;6.770;2023-08-06T03:03:41;11.50;;;9.05;;
48849;SDS011;63210;53.370;6.770;2023-08-06T03:06:07;12.97;;;10.37;;
48849;SDS011;63210;53.370;6.770;2023-08-06T03:08:32;13.70;;;10.85;;
48849;SDS011;63210;53.370;6.770;2023-08-06T03:10:57;12.60;;;11.10;;
48849;SDS011;63210;53.370;6.770;2023-08-06T03:13:23;13.77;;;10.80;;
48849;SDS011;63210;53.370;6.770;2023-08-06T03:15:52;15.55;;;10.90;;
48849;SDS011;63210;53.370;6.770;2023-08-06T03:18:18;11.02;;;9.75;;
48849;SDS011;63210;53.370;6.770;2023-08-06T03:20:44;11.48;;;9.25;;
48849;SDS011;63210;53.370;6.770;2023-08-06T03:23:09;12.48;;;9.75;;
48849;SDS011;63210;53.370;6.770;2023-08-06T03:25:35;11.13;;;9.02;;
48849;SDS011;63210;53.370;6.770;2023-08-06T03:28:00;11.23;;;8.60;;
48849;SDS011;63210;53.370;6.770;2023-08-06T03:30:25;15.48;;;9.13;;
48849;SDS011;63210;53.370;6.770;2023-08-06T03:32:54;10.27;;;9.10;;
48849;SDS011;63210;53.370;6.770;2023-08-06T03:35:19;12.55;;;8.73;;
48849;SDS011;63210;53.370;6.770;2023-08-06T03:37:44;13.02;;;8.88;;
48849;SDS011;63210;53.370;6.770;2023-08-06T03:40:10;11.70;;;9.45;;
48849;SDS011;63210;53.370;6.770;2023-08-06T03:42:35;10.00;;;8.73;;
48849;SDS011;63210;53.370;6.770;2023-08-06T03:45:00;11.90;;;8.05;;
48849;SDS011;63210;53.370;6.770;2023-08-06T03:47:25;10.37;;;8.70;;
48849;SDS011;63210;53.370;6.770;2023-08-06T03:49:51;14.27;;;8.75;;
48849;SDS011;63210;53.370;6.770;2023-08-06T03:52:16;11.80;;;9.47;;
48849;SDS011;63210;53.370;6.770;2023-08-06T03:54:41;11.30;;;9.10;;
48849;SDS011;63210;53.370;6.770;2023-08-06T03:57:08;10.13;;;8.73;;
48849;SDS011;63210;53.370;6.770;2023-08-06T03:59:33;9.68;;;8.35;;
48849;SDS011;63210;53.370;6.770;2023-08-06T04:01:59;11.27;;;8.75;;
48849;SDS011;63210;53.370;6.770;2023-08-06T04:04:24;9.90;;;7.90;;
48849;SDS011;63210;53.370;6.770;2023-08-06T04:06:49;11.27;;;8.17;;
48849;SDS011;63210;53.370;6.770;2023-08-06T04:09:14;12.32;;;8.13;;
48849;SDS011;63210;53.370;6.770;2023-08-06T04:11:40;12.77;;;8.30;;
48849;SDS011;63210;53.370;6.770;2023-08-06T04:14:05;13.07;;;9.83;;
48849;SDS011;63210;53.370;6.770;2023-08-06T04:16:30;11.32;;;8.38;;
48849;SDS011;63210;53.370;6.770;2023-08-06T04:18:55;12.38;;;9.45;;
48849;SDS011;63210;53.370;6.770;2023-08-06T04:21:21;14.70;;;10.07;;
48849;SDS011;63210;53.370;6.770;2023-08-06T04:23:46;13.60;;;9.23;;
48849;SDS011;63210;53.370;6.770;2023-08-06T04:26:11;9.90;;;8.15;;
48849;SDS011;63210;53.370;6.770;2023-08-06T04:28:40;11.45;;;8.98;;
48849;SDS011;63210;53.370;6.770;2023-08-06T04:31:05;13.23;;;9.32;;
48849;SDS011;63210;53.370;6.770;2023-08-06T04:33:30;13.15;;;10.07;;
48849;SDS011;63210;53.370;6.770;2023-08-06T04:35:55;15.43;;;10.40;;
48849;SDS011;63210;53.370;6.770;2023-08-06T04:38:22;11.88;;;9.15;;
48849;SDS011;63210;53.370;6.770;2023-08-06T04:40:48;13.75;;;8.73;;
48849;SDS011;63210;53.370;6.770;2023-08-06T04:43:13;12.10;;;8.88;;
48849;SDS011;63210;53.370;6.770;2023-08-06T04:45:38;10.63;;;9.00;;
48849;SDS011;63210;53.370;6.770;2023-08-06T04:48:10;11.57;;;7.93;;
48849;SDS011;63210;53.370;6.770;2023-08-06T04:50:35;11.20;;;8.65;;
48849;SDS011;63210;53.370;6.770;2023-08-06T04:53:01;16.92;;;9.10;;
48849;SDS011;63210;53.370;6.770;2023-08-06T04:55:26;10.15;;;8.60;;
48849;SDS011;63210;53.370;6.770;2023-08-06T04:57:51;11.63;;;8.87;;
48849;SDS011;63210;53.370;6.770;2023-08-06T05:00:16;9.55;;;7.88;;
48849;SDS011;63210;53.370;6.770;2023-08-06T05:02:42;9.48;;;7.70;;
48849;SDS011;63210;53.370;6.770;2023-08-06T05:05:07;11.57;;;9.17;;
48849;SDS011;63210;53.370;6.770;2023-08-06T05:07:32;15.88;;;9.38;;
48849;SDS011;63210;53.370;6.770;2023-08-06T05:09:57;18.50;;;10.13;;
48849;SDS011;63210;53.370;6.770;2023-08-06T05:12:23;11.13;;;9.52;;
48849;SDS011;63210;53.370;6.770;2023-08-06T05:14:48;14.48;;;9.65;;
48849;SDS011;63210;53.370;6.770;2023-08-06T05:17:13;12.07;;;8.93;;
48849;SDS011;63210;53.370;6.770;2023-08-06T05:19:39;12.37;;;8.80;;
48849;SDS011;63210;53.370;6.770;2023-08-06T05:22:04;14.00;;;10.63;;
48849;SDS011;63210;53.370;6.770;2023-08-06T05:24:29;11.88;;;9.60;;
48849;SDS011;63210;53.370;6.770;2023-08-06T05:26:54;10.10;;;8.65;;
48849;SDS011;63210;53.370;6.770;2023-08-06T05:29:20;10.38;;;8.52;;
48849;SDS011;63210;53.370;6.770;2023-08-06T05:31:45;11.07;;;7.97;;
48849;SDS011;63210;53.370;6.770;2023-08-06T05:34:10;10.07;;;8.48;;
48849;SDS011;63210;53.370;6.770;2023-08-06T05:36:36;9.68;;;7.90;;
48849;SDS011;63210;53.370;6.770;2023-08-06T05:39:01;11.30;;;8.00;;
48849;SDS011;63210;53.370;6.770;2023-08-06T05:41:26;9.15;;;8.02;;
48849;SDS011;63210;53.370;6.770;2023-08-06T05:43:51;10.80;;;8.77;;
48849;SDS011;63210;53.370;6.770;2023-08-06T05:46:17;9.57;;;7.97;;
48849;SDS011;63210;53.370;6.770;2023-08-06T05:48:42;9.88;;;8.30;;
48849;SDS011;63210;53.370;6.770;2023-08-06T05:51:07;14.52;;;9.35;;
48849;SDS011;63210;53.370;6.770;2023-08-06T05:53:33;11.52;;;8.75;;
48849;SDS011;63210;53.370;6.770;2023-08-06T05:55:58;11.35;;;8.60;;
48849;SDS011;63210;53.370;6.770;2023-08-06T05:58:23;12.23;;;9.03;;
48849;SDS011;63210;53.370;6.770;2023-08-06T06:00:51;10.68;;;8.70;;
48849;SDS011;63210;53.370;6.770;2023-08-06T06:03:16;11.13;;;9.07;;
48849;SDS011;63210;53.370;6.770;2023-08-06T06:05:41;11.53;;;8.50;;
48849;SDS011;63210;53.370;6.770;2023-08-06T06:08:07;12.53;;;9.00;;
48849;SDS011;63210;53.370;6.770;2023-08-06T06:10:32;11.32;;;8.93;;
48849;SDS011;63210;53.370;6.770;2023-08-06T06:12:57;10.88;;;8.82;;
48849;SDS011;63210;53.370;6.770;2023-08-06T06:15:23;11.88;;;8.63;;
48849;SDS011;63210;53.370;6.770;2023-08-06T06:17:48;12.07;;;9.52;;
48849;SDS011;63210;53.370;6.770;2023-08-06T06:20:13;12.23;;;9.23;;
48849;SDS011;63210;53.370;6.770;2023-08-06T06:22:38;10.45;;;8.95;;
48849;SDS011;63210;53.370;6.770;2023-08-06T06:25:04;16.52;;;8.50;;
48849;SDS011;63210;53.370;6.770;2023-08-06T06:27:29;9.82;;;8.18;;
48849;SDS011;63210;53.370;6.770;2023-08-06T06:29:55;12.25;;;8.30;;
48849;SDS011;63210;53.370;6.770;2023-08-06T06:32:20;11.00;;;8.02;;
48849;SDS011;63210;53.370;6.770;2023-08-06T06:34:45;10.75;;;8.95;;
48849;SDS011;63210;53.370;6.770;2023-08-06T06:37:11;10.55;;;8.77;;
48849;SDS011;63210;53.370;6.770;2023-08-06T06:39:36;11.70;;;9.10;;
48849;SDS011;63210;53.370;6.770;2023-08-06T06:42:01;9.25;;;8.02;;
48849;SDS011;63210;53.370;6.770;2023-08-06T06:44:27;8.95;;;7.88;;
48849;SDS011;63210;53.370;6.770;2023-08-06T06:46:52;10.93;;;8.23;;
48849;SDS011;63210;53.370;6.770;2023-08-06T06:49:17;10.90;;;8.13;;
48849;SDS011;63210;53.370;6.770;2023-08-06T06:51:42;9.00;;;8.00;;
48849;SDS011;63210;53.370;6.770;2023-08-06T06:54:08;8.77;;;7.40;;
48849;SDS011;63210;53.370;6.770;2023-08-06T06:56:33;9.77;;;7.88;;
48849;SDS011;63210;53.370;6.770;2023-08-06T06:58:58;9.55;;;7.90;;
48849;SDS011;63210;53.370;6.770;2023-08-06T07:01:23;11.07;;;8.77;;
48849;SDS011;63210;53.370;6.770;2023-08-06T07:03:49;14.20;;;7.93;;
48849;SDS011;63210;53.370;6.770;2023-08-06T07:06:14;12.75;;;7.85;;
48849;SDS011;63210;53.370;6.770;2023-08-06T07:08:40;8.07;;;7.13;;
48849;SDS011;63210;53.370;6.770;2023-08-06T07:11:06;10.98;;;7.80;;
48849;SDS011;63210;53.370;6.770;2023-08-06T07:13:32;10.73;;;7.63;;
48849;SDS011;63210;53.370;6.770;2023-08-06T07:15:58;10.27;;;7.85;;
48849;SDS011;63210;53.370;6.770;2023-08-06T07:18:23;8.60;;;7.20;;
48849;SDS011;63210;53.370;6.770;2023-08-06T07:20:49;8.02;;;7.22;;
48849;SDS011;63210;53.370;6.770;2023-08-06T07:23:15;10.63;;;8.35;;
48849;SDS011;63210;53.370;6.770;2023-08-06T07:25:40;9.95;;;6.82;;
48849;SDS011;63210;53.370;6.770;2023-08-06T07:28:05;10.20;;;6.72;;
48849;SDS011;63210;53.370;6.770;2023-08-06T07:30:31;8.02;;;6.68;;
48849;SDS011;63210;53.370;6.770;2023-08-06T07:32:56;9.70;;;7.63;;
48849;SDS011;63210;53.370;6.770;2023-08-06T07:35:21;8.53;;;6.00;;
48849;SDS011;63210;53.370;6.770;2023-08-06T07:37:49;7.10;;;6.40;;
48849;SDS011;63210;53.370;6.770;2023-08-06T07:40:14;8.30;;;6.40;;
48849;SDS011;63210;53.370;6.770;2023-08-06T07:42:39;6.82;;;6.05;;
48849;SDS011;63210;53.370;6.770;2023-08-06T07:45:05;6.70;;;6.10;;
48849;SDS011;63210;53.370;6.770;2023-08-06T07:47:30;6.93;;;6.13;;
48849;SDS011;63210;53.370;6.770;2023-08-06T07:49:56;5.93;;;5.32;;
48849;SDS011;63210;53.370;6.770;2023-08-06T07:52:21;5.60;;;4.80;;
48849;SDS011;63210;53.370;6.770;2023-08-06T07:54:46;5.17;;;4.67;;
48849;SDS011;63210;53.370;6.770;2023-08-06T07:57:11;6.07;;;5.47;;
48849;SDS011;63210;53.370;6.770;2023-08-06T07:59:37;7.15;;;6.00;;
48849;SDS011;63210;53.370;6.770;2023-08-06T08:02:02;7.22;;;5.20;;
48849;SDS011;63210;53.370;6.770;2023-08-06T08:04:27;7.35;;;5.45;;
48849;SDS011;63210;53.370;6.770;2023-08-06T08:06:52;8.05;;;5.68;;
48849;SDS011;63210;53.370;6.770;2023-08-06T08:09:18;9.27;;;6.00;;
48849;SDS011;63210;53.370;6.770;2023-08-06T08:11:43;7.55;;;5.10;;
48849;SDS011;63210;53.370;6.770;2023-08-06T08:14:09;5.22;;;4.53;;
48849;SDS011;63210;53.370;6.770;2023-08-06T08:16:34;8.47;;;4.97;;
48849;SDS011;63210;53.370;6.770;2023-08-06T08:18:59;7.20;;;5.03;;
48849;SDS011;63210;53.370;6.770;2023-08-06T08:21:25;8.48;;;5.22;;
48849;SDS011;63210;53.370;6.770;2023-08-06T08:23:50;5.43;;;4.72;;
48849;SDS011;63210;53.370;6.770;2023-08-06T08:26:16;4.82;;;4.03;;
48849;SDS011;63210;53.370;6.770;2023-08-06T08:28:41;4.00;;;3.60;;
48849;SDS011;63210;53.370;6.770;2023-08-06T08:31:10;5.60;;;4.22;;
48849;SDS011;63210;53.370;6.770;2023-08-06T08:33:36;7.45;;;3.53;;
48849;SDS011;63210;53.370;6.770;2023-08-06T08:36:01;4.20;;;3.80;;
48849;SDS011;63210;53.370;6.770;2023-08-06T08:38:27;3.97;;;3.00;;
48849;SDS011;63210;53.370;6.770;2023-08-06T08:40:53;3.40;;;3.07;;
48849;SDS011;63210;53.370;6.770;2023-08-06T08:43:22;3.97;;;2.80;;
48849;SDS011;63210;53.370;6.770;2023-08-06T08:45:49;4.00;;;3.10;;
48849;SDS011;63210;53.370;6.770;2023-08-06T08:48:15;4.55;;;3.25;;
48849;SDS011;63210;53.370;6.770;2023-08-06T08:50:41;5.07;;;2.90;;
48849;SDS011;63210;53.370;6.770;2023-08-06T08:53:07;4.43;;;2.95;;
48849;SDS011;63210;53.370;6.770;2023-08-06T08:55:33;3.60;;;2.45;;
48849;SDS011;63210;53.370;6.770;2023-08-06T08:57:59;4.97;;;2.25;;
48849;SDS011;63210;53.370;6.770;2023-08-06T09:00:24;4.63;;;2.60;;
48849;SDS011;63210;53.370;6.770;2023-08-06T09:02:50;4.28;;;2.33;;
48849;SDS011;63210;53.370;6.770;2023-08-06T09:05:16;3.25;;;2.10;;
48849;SDS011;63210;53.370;6.770;2023-08-06T09:07:43;5.00;;;2.80;;
48849;SDS011;63210;53.370;6.770;2023-08-06T09:10:11;3.97;;;2.50;;
48849;SDS011;63210;53.370;6.770;2023-08-06T09:12:39;1.98;;;1.42;;
48849;SDS011;63210;53.370;6.770;2023-08-06T09:15:04;3.00;;;1.70;;
48849;SDS011;63210;53.370;6.770;2023-08-06T09:17:29;4.45;;;1.50;;
48849;SDS011;63210;53.370;6.770;2023-08-06T09:19:55;5.60;;;2.25;;
48849;SDS011;63210;53.370;6.770;2023-08-06T09:22:20;1.60;;;1.40;;
48849;SDS011;63210;53.370;6.770;2023-08-06T09:24:46;2.20;;;1.60;;
48849;SDS011;63210;53.370;6.770;2023-08-06T09:27:14;3.17;;;2.03;;
48849;SDS011;63210;53.370;6.770;2023-08-06T09:29:40;3.95;;;1.88;;
48849;SDS011;63210;53.370;6.770;2023-08-06T09:32:06;3.78;;;1.67;;
48849;SDS011;63210;53.370;6.770;2023-08-06T09:34:31;1.92;;;1.67;;
48849;SDS011;63210;53.370;6.770;2023-08-06T09:36:56;3.57;;;1.80;;
48849;SDS011;63210;53.370;6.770;2023-08-06T09:39:26;3.17;;;1.80;;
48849;SDS011;63210;53.370;6.770;2023-08-06T09:41:56;2.20;;;1.80;;
48849;SDS011;63210;53.370;6.770;2023-08-06T09:44:25;2.05;;;1.80;;
48849;SDS011;63210;53.370;6.770;2023-08-06T09:46:52;2.15;;;1.70;;
48849;SDS011;63210;53.370;6.770;2023-08-06T09:49:18;2.28;;;1.70;;
48849;SDS011;63210;53.370;6.770;2023-08-06T09:51:43;1.70;;;1.60;;
48849;SDS011;63210;53.370;6.770;2023-08-06T09:54:10;2.50;;;1.95;;
48849;SDS011;63210;53.370;6.770;2023-08-06T09:56:38;1.88;;;1.52;;
48849;SDS011;63210;53.370;6.770;2023-08-06T09:59:06;2.00;;;1.70;;
48849;SDS011;63210;53.370;6.770;2023-08-06T10:01:33;1.85;;;1.60;;
48849;SDS011;63210;53.370;6.770;2023-08-06T10:03:59;2.35;;;1.60;;
48849;SDS011;63210;53.370;6.770;2023-08-06T10:06:25;1.90;;;1.50;;
48849;SDS011;63210;53.370;6.770;2023-08-06T10:08:51;2.70;;;1.50;;
48849;SDS011;63210;53.370;6.770;2023-08-06T10:11:17;2.72;;;1.50;;
48849;SDS011;63210;53.370;6.770;2023-08-06T10:13:42;3.63;;;1.65;;
48849;SDS011;63210;53.370;6.770;2023-08-06T10:16:08;3.97;;;1.70;;
48849;SDS011;63210;53.370;6.770;2023-08-06T10:18:33;5.70;;;1.98;;
48849;SDS011;63210;53.370;6.770;2023-08-06T10:21:00;1.70;;;1.60;;
48849;SDS011;63210;53.370;6.770;2023-08-06T10:23:36;2.58;;;2.03;;
48849;SDS011;63210;53.370;6.770;2023-08-06T10:26:03;2.28;;;1.80;;
48849;SDS011;63210;53.370;6.770;2023-08-06T10:28:38;2.58;;;1.80;;
48849;SDS011;63210;53.370;6.770;2023-08-06T10:31:03;3.45;;;1.50;;
48849;SDS011;63210;53.370;6.770;2023-08-06T10:33:39;1.90;;;1.73;;
48849;SDS011;63210;53.370;6.770;2023-08-06T10:36:05;3.95;;;1.73;;
48849;SDS011;63210;53.370;6.770;2023-08-06T10:38:34;2.10;;;1.60;;
48849;SDS011;63210;53.370;6.770;2023-08-06T10:41:02;2.80;;;1.90;;
48849;SDS011;63210;53.370;6.770;2023-08-06T10:45:53;2.88;;;1.63;;
48849;SDS011;63210;53.370;6.770;2023-08-06T10:48:33;2.97;;;1.80;;
48849;SDS011;63210;53.370;6.770;2023-08-06T10:50:59;2.47;;;1.70;;
48849;SDS011;63210;53.370;6.770;2023-08-06T10:53:24;2.03;;;1.83;;
48849;SDS011;63210;53.370;6.770;2023-08-06T10:55:50;2.38;;;1.85;;
48849;SDS011;63210;53.370;6.770;2023-08-06T10:58:15;4.40;;;1.90;;
48849;SDS011;63210;53.370;6.770;2023-08-06T11:05:54;1.75;;;1.63;;
48849;SDS011;63210;53.370;6.770;2023-08-06T11:08:24;2.83;;;1.90;;
48849;SDS011;63210;53.370;6.770;2023-08-06T11:10:50;3.30;;;1.80;;
48849;SDS011;63210;53.370;6.770;2023-08-06T11:13:18;2.85;;;1.70;;
48849;SDS011;63210;53.370;6.770;2023-08-06T11:15:45;3.03;;;1.20;;
48849;SDS011;63210;53.370;6.770;2023-08-06T11:18:10;2.00;;;1.50;;
48849;SDS011;63210;53.370;6.770;2023-08-06T11:20:36;2.17;;;1.40;;
48849;SDS011;63210;53.370;6.770;2023-08-06T11:23:01;4.03;;;1.58;;
48849;SDS011;63210;53.370;6.770;2023-08-06T11:25:26;2.35;;;1.60;;
48849;SDS011;63210;53.370;6.770;2023-08-06T11:27:52;3.38;;;1.30;;
48849;SDS011;63210;53.370;6.770;2023-08-06T11:30:17;3.13;;;1.40;;
48849;SDS011;63210;53.370;6.770;2023-08-06T11:32:46;1.97;;;1.77;;
48849;SDS011;63210;53.370;6.770;2023-08-06T11:35:12;2.28;;;1.50;;
48849;SDS011;63210;53.370;6.770;2023-08-06T11:37:38;2.97;;;1.70;;
48849;SDS011;63210;53.370;6.770;2023-08-06T11:40:06;4.00;;;1.52;;
48849;SDS011;63210;53.370;6.770;2023-08-06T11:42:33;1.85;;;1.48;;
48849;SDS011;63210;53.370;6.770;2023-08-06T11:44:58;2.00;;;1.63;;
48849;SDS011;63210;53.370;6.770;2023-08-06T11:47:23;3.10;;;1.40;;
48849;SDS011;63210;53.370;6.770;2023-08-06T11:49:49;2.58;;;1.50;;
48849;SDS011;63210;53.370;6.770;2023-08-06T11:52:18;1.73;;;1.58;;
48849;SDS011;63210;53.370;6.770;2023-08-06T11:54:45;1.88;;;1.58;;
48849;SDS011;63210;53.370;6.770;2023-08-06T11:57:10;1.60;;;1.50;;
48849;SDS011;63210;53.370;6.770;2023-08-06T11:59:36;2.03;;;1.40;;
48849;SDS011;63210;53.370;6.770;2023-08-06T12:02:02;1.40;;;1.20;;
48849;SDS011;63210;53.370;6.770;2023-08-06T12:04:28;2.50;;;1.50;;
48849;SDS011;63210;53.370;6.770;2023-08-06T12:06:53;1.60;;;1.40;;
48849;SDS011;63210;53.370;6.770;2023-08-06T12:09:18;3.58;;;1.42;;
48849;SDS011;63210;53.370;6.770;2023-08-06T12:11:43;2.55;;;1.40;;
48849;SDS011;63210;53.370;6.770;2023-08-06T12:14:09;2.20;;;1.35;;
48849;SDS011;63210;53.370;6.770;2023-08-06T12:16:34;2.33;;;1.40;;
48849;SDS011;63210;53.370;6.770;2023-08-06T12:19:01;3.03;;;1.50;;
48849;SDS011;63210;53.370;6.770;2023-08-06T12:21:26;1.97;;;1.37;;
48849;SDS011;63210;53.370;6.770;2023-08-06T12:23:51;2.25;;;1.63;;
48849;SDS011;63210;53.370;6.770;2023-08-06T12:26:17;1.70;;;1.60;;
48849;SDS011;63210;53.370;6.770;2023-08-06T12:28:42;1.50;;;1.40;;
48849;SDS011;63210;53.370;6.770;2023-08-06T12:31:08;1.45;;;1.35;;
48849;SDS011;63210;53.370;6.770;2023-08-06T12:33:33;1.30;;;1.20;;
48849;SDS011;63210;53.370;6.770;2023-08-06T12:35:59;1.50;;;1.40;;
48849;SDS011;63210;53.370;6.770;2023-08-06T12:38:25;1.88;;;1.40;;
48849;SDS011;63210;53.370;6.770;2023-08-06T12:40:50;2.37;;;1.50;;
48849;SDS011;63210;53.370;6.770;2023-08-06T12:43:15;2.20;;;1.52;;
48849;SDS011;63210;53.370;6.770;2023-08-06T12:45:41;3.33;;;1.67;;
48849;SDS011;63210;53.370;6.770;2023-08-06T12:48:06;1.67;;;1.57;;
48849;SDS011;63210;53.370;6.770;2023-08-06T12:50:31;2.30;;;1.60;;
48849;SDS011;63210;53.370;6.770;2023-08-06T12:52:57;3.00;;;1.35;;
48849;SDS011;63210;53.370;6.770;2023-08-06T12:55:23;1.60;;;1.40;;
48849;SDS011;63210;53.370;6.770;2023-08-06T12:57:48;3.35;;;1.50;;
48849;SDS011;63210;53.370;6.770;2023-08-06T13:00:13;3.17;;;1.40;;
48849;SDS011;63210;53.370;6.770;2023-08-06T13:02:39;2.10;;;1.52;;
48849;SDS011;63210;53.370;6.770;2023-08-06T13:05:04;2.23;;;1.50;;
48849;SDS011;63210;53.370;6.770;2023-08-06T13:07:31;1.70;;;1.60;;
48849;SDS011;63210;53.370;6.770;2023-08-06T13:09:56;1.38;;;1.27;;
48849;SDS011;63210;53.370;6.770;2023-08-06T13:12:21;1.87;;;1.50;;
48849;SDS011;63210;53.370;6.770;2023-08-06T13:14:48;3.15;;;1.85;;
48849;SDS011;63210;53.370;6.770;2023-08-06T13:17:13;1.63;;;1.52;;
48849;SDS011;63210;53.370;6.770;2023-08-06T13:19:38;1.70;;;1.60;;
48849;SDS011;63210;53.370;6.770;2023-08-06T13:22:04;2.50;;;1.60;;
48849;SDS011;63210;53.370;6.770;2023-08-06T13:24:30;1.42;;;1.33;;
48849;SDS011;63210;53.370;6.770;2023-08-06T13:26:56;4.18;;;1.52;;
48849;SDS011;63210;53.370;6.770;2023-08-06T13:29:21;1.60;;;1.45;;
48849;SDS011;63210;53.370;6.770;2023-08-06T13:31:46;2.20;;;1.77;;
48849;SDS011;63210;53.370;6.770;2023-08-06T13:34:12;1.90;;;1.63;;
48849;SDS011;63210;53.370;6.770;2023-08-06T13:36:37;3.43;;;1.63;;
48849;SDS011;63210;53.370;6.770;2023-08-06T13:39:02;2.23;;;1.90;;
48849;SDS011;63210;53.370;6.770;2023-08-06T13:41:30;2.03;;;1.75;;
48849;SDS011;63210;53.370;6.770;2023-08-06T13:43:55;4.97;;;1.73;;
48849;SDS011;63210;53.370;6.770;2023-08-06T13:46:21;3.67;;;1.50;;
48849;SDS011;63210;53.370;6.770;2023-08-06T13:48:47;2.03;;;1.77;;
48849;SDS011;63210;53.370;6.770;2023-08-06T13:51:13;2.47;;;1.95;;
48849;SDS011;63210;53.370;6.770;2023-08-06T13:53:39;2.05;;;1.60;;
48849;SDS011;63210;53.370;6.770;2023-08-06T13:56:05;4.40;;;2.03;;
48849;SDS011;63210;53.370;6.770;2023-08-06T13:58:31;2.13;;;1.63;;
48849;SDS011;63210;53.370;6.770;2023-08-06T14:00:56;2.30;;;1.73;;
48849;SDS011;63210;53.370;6.770;2023-08-06T14:03:22;2.15;;;1.90;;
48849;SDS011;63210;53.370;6.770;2023-08-06T14:05:48;1.77;;;1.55;;
48849;SDS011;63210;53.370;6.770;2023-08-06T14:08:13;2.55;;;1.70;;
48849;SDS011;63210;53.370;6.770;2023-08-06T14:10:39;2.25;;;1.58;;
48849;SDS011;63210;53.370;6.770;2023-08-06T14:13:04;3.10;;;1.75;;
48849;SDS011;63210;53.370;6.770;2023-08-06T14:15:29;2.78;;;1.75;;
48849;SDS011;63210;53.370;6.770;2023-08-06T14:17:55;2.50;;;1.60;;
48849;SDS011;63210;53.370;6.770;2023-08-06T14:20:20;1.80;;;1.70;;
48849;SDS011;63210;53.370;6.770;2023-08-06T14:22:45;2.60;;;1.90;;
48849;SDS011;63210;53.370;6.770;2023-08-06T14:28:06;3.03;;;1.80;;
48849;SDS011;63210;53.370;6.770;2023-08-06T14:30:32;2.87;;;1.90;;
48849;SDS011;63210;53.370;6.770;2023-08-06T14:32:58;2.75;;;1.80;;
48849;SDS011;63210;53.370;6.770;2023-08-06T14:35:25;2.63;;;1.80;;
48849;SDS011;63210;53.370;6.770;2023-08-06T14:37:53;3.20;;;2.08;;
48849;SDS011;63210;53.370;6.770;2023-08-06T14:40:18;3.27;;;2.00;;
48849;SDS011;63210;53.370;6.770;2023-08-06T14:42:44;2.10;;;1.90;;
48849;SDS011;63210;53.370;6.770;2023-08-06T14:45:09;1.95;;;1.75;;
48849;SDS011;63210;53.370;6.770;2023-08-06T14:47:34;2.33;;;1.80;;
48849;SDS011;63210;53.370;6.770;2023-08-06T14:50:00;2.95;;;2.20;;